createdAt,value
2023-03-16T00:00:22.233Z,1.03
2023-03-16T00:01:22.209Z,1.18
2023-03-16T00:02:22.257Z,1.01
2023-03-16T00:03:22.237Z,1.31
2023-03-16T00:04:22.208Z,1.31
2023-03-16T00:05:22.172Z,1.21
2023-03-16T00:06:24.512Z,0.95
2023-03-16T00:07:22.165Z,1.40
2023-03-16T00:08:22.191Z,1.38
2023-03-16T00:09:22.137Z,1.16
2023-03-16T00:10:22.124Z,1.19
2023-03-16T00:11:22.137Z,1.25
2023-03-16T00:12:22.119Z,1.32
2023-03-16T00:13:22.098Z,1.40
2023-03-16T00:14:22.109Z,1.52
2023-03-16T00:15:22.096Z,1.28
2023-03-16T00:16:22.112Z,1.01
2023-03-16T00:17:22.064Z,1.23
2023-03-16T00:18:22.085Z,1.17
2023-03-16T00:19:22.048Z,1.09
2023-03-16T00:20:22.020Z,1.35
2023-03-16T00:21:22.018Z,1.23
2023-03-16T00:22:22.009Z,1.16
2023-03-16T00:23:22.032Z,1.21
2023-03-16T00:24:22.020Z,1.33
2023-03-16T00:25:21.974Z,1.34
2023-03-16T00:26:22.498Z,1.24
2023-03-16T00:27:21.951Z,1.08
2023-03-16T00:28:21.953Z,1.15
2023-03-16T00:29:21.939Z,1.28
2023-03-16T00:30:21.938Z,0.94
2023-03-16T00:31:21.936Z,1.37
2023-03-16T00:32:21.924Z,1.31
2023-03-16T00:33:21.941Z,1.17
2023-03-16T00:34:21.935Z,1.27
2023-03-16T00:35:21.950Z,1.23
2023-03-16T00:36:21.870Z,1.28
2023-03-16T00:37:21.901Z,1.03
2023-03-16T00:38:21.876Z,1.27
2023-03-16T00:39:21.877Z,1.40
2023-03-16T00:40:21.878Z,1.12
2023-03-16T00:41:21.842Z,1.07
2023-03-16T00:42:21.843Z,0.91
2023-03-16T00:43:21.809Z,1.05
2023-03-16T00:44:21.818Z,1.11
2023-03-16T00:45:21.854Z,1.22
2023-03-16T00:46:21.905Z,1.19
2023-03-16T00:47:21.809Z,1.10
2023-03-16T00:48:21.804Z,1.16
2023-03-16T00:49:21.833Z,1.38
2023-03-16T00:50:21.777Z,1.58
2023-03-16T00:51:21.793Z,1.34
2023-03-16T00:52:21.818Z,1.31
2023-03-16T00:53:21.813Z,1.26
2023-03-16T00:54:21.800Z,0.93
2023-03-16T00:55:21.784Z,1.29
2023-03-16T00:56:21.776Z,1.09
2023-03-16T00:57:21.789Z,0.97
2023-03-16T00:58:21.790Z,1.20
2023-03-16T00:59:21.782Z,1.14
2023-03-16T01:00:21.767Z,1.16
2023-03-16T01:01:21.879Z,1.20
2023-03-16T01:02:21.779Z,1.19
2023-03-16T01:03:21.798Z,1.08
2023-03-16T01:04:21.802Z,1.05
2023-03-16T01:05:21.809Z,1.36
2023-03-16T01:06:21.770Z,1.10
2023-03-16T01:07:21.770Z,1.17
2023-03-16T01:08:21.750Z,1.03
2023-03-16T01:09:21.759Z,1.33
2023-03-16T01:10:21.769Z,1.15
2023-03-16T01:11:21.728Z,1.08
2023-03-16T01:12:21.728Z,1.13
2023-03-16T01:13:21.735Z,0.98
2023-03-16T01:14:21.732Z,0.96
2023-03-16T01:15:21.729Z,1.06
2023-03-16T01:16:21.728Z,1.14
2023-03-16T01:17:21.739Z,1.11
2023-03-16T01:18:21.762Z,1.23
2023-03-16T01:19:21.775Z,0.96
2023-03-16T01:20:21.781Z,1.14
2023-03-16T01:21:21.873Z,1.26
2023-03-16T01:22:21.836Z,0.84
2023-03-16T01:23:21.893Z,1.06
2023-03-16T01:24:21.823Z,1.09
2023-03-16T01:25:21.875Z,0.98
2023-03-16T01:26:21.895Z,1.28
2023-03-16T01:27:21.904Z,0.99
2023-03-16T01:28:21.948Z,0.98
2023-03-16T01:29:21.929Z,1.25
2023-03-16T01:30:21.932Z,0.99
2023-03-16T01:31:22.078Z,1.06
2023-03-16T01:32:21.996Z,0.86
2023-03-16T01:33:22.006Z,0.94
2023-03-16T01:34:22.041Z,1.30
2023-03-16T01:35:22.113Z,1.18
2023-03-16T01:36:22.054Z,1.16
2023-03-16T01:37:22.064Z,1.17
2023-03-16T01:38:22.079Z,0.98
2023-03-16T01:39:22.104Z,1.21
2023-03-16T01:40:22.131Z,1.04
2023-03-16T01:41:22.232Z,1.11
2023-03-16T01:42:22.160Z,0.93
2023-03-16T01:43:22.162Z,1.11
2023-03-16T01:44:22.177Z,0.98
2023-03-16T01:45:22.230Z,1.27
2023-03-16T01:46:22.271Z,1.20
2023-03-16T01:47:22.240Z,1.22
2023-03-16T01:48:24.134Z,1.18
2023-03-16T01:49:22.378Z,1.06
2023-03-16T01:50:22.411Z,1.00
2023-03-16T01:51:22.396Z,1.13
2023-03-16T01:52:22.412Z,1.19
2023-03-16T01:53:22.476Z,0.91
2023-03-16T01:54:22.466Z,1.21
2023-03-16T01:55:22.452Z,0.96
2023-03-16T01:56:22.509Z,1.23
2023-03-16T01:57:22.483Z,1.24
2023-03-16T01:58:22.501Z,0.97
2023-03-16T01:59:23.006Z,1.10
2023-03-16T02:00:22.541Z,0.99
2023-03-16T02:01:22.574Z,1.39
2023-03-16T02:02:22.526Z,1.35
2023-03-16T02:03:22.580Z,1.02
2023-03-16T02:04:22.625Z,0.84
2023-03-16T02:05:22.545Z,1.27
2023-03-16T02:06:22.599Z,1.09
2023-03-16T02:07:22.579Z,1.17
2023-03-16T02:08:22.567Z,1.23
2023-03-16T02:09:22.602Z,1.09
2023-03-16T02:10:22.579Z,1.24
2023-03-16T02:11:22.632Z,1.41
2023-03-16T02:12:22.645Z,0.93
2023-03-16T02:13:22.641Z,0.82
2023-03-16T02:14:22.648Z,1.34
2023-03-16T02:15:22.691Z,1.23
2023-03-16T02:16:22.848Z,1.14
2023-03-16T02:17:22.636Z,1.71
2023-03-16T02:18:22.666Z,1.28
2023-03-16T02:19:22.694Z,1.16
2023-03-16T02:20:22.713Z,1.34
2023-03-16T02:21:22.723Z,1.00
2023-03-16T02:22:22.713Z,1.03
2023-03-16T02:23:22.722Z,1.02
2023-03-16T02:24:22.720Z,1.12
2023-03-16T02:25:22.762Z,1.31
2023-03-16T02:26:22.726Z,1.17
2023-03-16T02:27:22.782Z,1.50
2023-03-16T02:28:22.851Z,1.12
2023-03-16T02:29:22.777Z,1.05
2023-03-16T02:30:22.797Z,1.05
2023-03-16T02:31:22.828Z,0.96
2023-03-16T02:32:22.973Z,1.05
2023-03-16T02:33:22.818Z,1.17
2023-03-16T02:34:22.853Z,1.21
2023-03-16T02:35:22.855Z,1.50
2023-03-16T02:36:22.841Z,1.32
2023-03-16T02:37:22.880Z,1.40
2023-03-16T02:38:22.893Z,1.17
2023-03-16T02:39:22.860Z,1.11
2023-03-16T02:40:22.921Z,1.07
2023-03-16T02:41:22.855Z,1.33
2023-03-16T02:42:22.877Z,1.49
2023-03-16T02:43:22.886Z,1.28
2023-03-16T02:44:22.891Z,1.26
2023-03-16T02:45:22.873Z,1.14
2023-03-16T02:46:22.923Z,1.02
2023-03-16T02:47:22.886Z,1.20
2023-03-16T02:48:22.880Z,1.00
2023-03-16T02:49:22.897Z,1.40
2023-03-16T02:50:22.900Z,1.11
2023-03-16T02:51:22.905Z,1.39
2023-03-16T02:52:23.062Z,1.10
2023-03-16T02:53:22.957Z,1.32
2023-03-16T02:54:22.918Z,1.26
2023-03-16T02:55:22.927Z,1.09
2023-03-16T02:56:22.942Z,1.13
2023-03-16T02:57:22.961Z,1.23
2023-03-16T02:58:22.988Z,1.11
2023-03-16T02:59:22.997Z,1.18
2023-03-16T03:00:22.987Z,1.32
2023-03-16T03:01:23.003Z,1.04
2023-03-16T03:02:22.998Z,0.97
2023-03-16T03:03:23.104Z,0.99
2023-03-16T03:04:22.989Z,1.48
2023-03-16T03:05:23.006Z,0.95
2023-03-16T03:06:23.013Z,1.10
2023-03-16T03:07:23.055Z,1.11
2023-03-16T03:08:23.039Z,1.37
2023-03-16T03:09:23.067Z,1.34
2023-03-16T03:10:23.107Z,1.36
2023-03-16T03:11:23.102Z,1.07
2023-03-16T03:12:23.106Z,1.24
2023-03-16T03:13:23.123Z,1.15
2023-03-16T03:14:23.113Z,1.60
2023-03-16T03:15:23.128Z,1.25
2023-03-16T03:16:23.302Z,1.19
2023-03-16T03:17:23.212Z,1.19
2023-03-16T03:18:23.196Z,1.17
2023-03-16T03:19:23.239Z,1.21
2023-03-16T03:20:23.240Z,0.83
2023-03-16T03:21:23.268Z,1.35
2023-03-16T03:22:23.285Z,1.11
2023-03-16T03:23:23.347Z,1.09
2023-03-16T03:24:23.355Z,1.21
2023-03-16T03:25:23.405Z,1.29
2023-03-16T03:26:23.409Z,1.13
2023-03-16T03:27:23.443Z,1.11
2023-03-16T03:28:23.469Z,1.40
2023-03-16T03:29:23.462Z,1.13
2023-03-16T03:30:23.467Z,1.17
2023-03-16T03:31:23.546Z,1.12
2023-03-16T03:32:23.524Z,1.28
2023-03-16T03:33:23.517Z,1.35
2023-03-16T03:34:23.571Z,1.10
2023-03-16T03:35:23.569Z,1.21
2023-03-16T03:36:23.577Z,1.20
2023-03-16T03:37:23.582Z,1.30
2023-03-16T03:38:23.656Z,1.13
2023-03-16T03:39:23.710Z,0.89
2023-03-16T03:40:23.708Z,1.46
2023-03-16T03:41:23.721Z,1.28
2023-03-16T03:42:23.774Z,1.16
2023-03-16T03:43:23.823Z,1.20
2023-03-16T03:44:23.812Z,1.18
2023-03-16T03:45:23.870Z,1.25
2023-03-16T03:46:23.957Z,0.97
2023-03-16T03:47:23.937Z,1.33
2023-03-16T03:48:23.935Z,0.91
2023-03-16T03:49:23.986Z,1.03
2023-03-16T03:50:24.020Z,1.14
2023-03-16T03:51:24.051Z,1.28
2023-03-16T03:52:24.207Z,1.15
2023-03-16T03:53:24.137Z,1.49
2023-03-16T03:54:24.135Z,1.00
2023-03-16T03:55:24.198Z,1.16
2023-03-16T03:56:24.240Z,1.13
2023-03-16T03:57:24.279Z,1.38
2023-03-16T03:58:24.351Z,1.21
2023-03-16T03:59:24.355Z,1.59
2023-03-16T04:00:24.399Z,0.99
2023-03-16T04:01:24.410Z,1.09
2023-03-16T04:02:24.625Z,1.15
2023-03-16T04:03:24.529Z,1.27
2023-03-16T04:04:24.508Z,1.10
2023-03-16T04:05:24.558Z,1.09
2023-03-16T04:06:24.535Z,1.02
2023-03-16T04:07:24.627Z,1.28
2023-03-16T04:08:24.654Z,0.99
2023-03-16T04:09:24.654Z,1.01
2023-03-16T04:10:24.695Z,1.01
2023-03-16T04:11:24.740Z,1.16
2023-03-16T04:12:24.774Z,1.16
2023-03-16T04:13:24.805Z,1.12
2023-03-16T04:14:24.836Z,1.08
2023-03-16T04:15:24.903Z,1.33
2023-03-16T04:16:24.997Z,1.10
2023-03-16T04:17:24.973Z,1.15
2023-03-16T04:18:24.948Z,1.20
2023-03-16T04:19:25.028Z,1.04
2023-03-16T04:20:25.037Z,1.16
2023-03-16T04:21:25.063Z,1.11
2023-03-16T04:22:25.090Z,1.14
2023-03-16T04:23:25.219Z,1.44
2023-03-16T04:24:25.183Z,1.33
2023-03-16T04:25:25.178Z,1.11
2023-03-16T04:26:25.197Z,1.34
2023-03-16T04:27:25.220Z,1.23
2023-03-16T04:28:25.279Z,1.12
2023-03-16T04:29:25.316Z,1.15
2023-03-16T04:30:25.327Z,1.18
2023-03-16T04:31:25.383Z,1.11
2023-03-16T04:32:25.449Z,1.08
2023-03-16T04:33:25.405Z,0.91
2023-03-16T04:34:25.423Z,1.19
2023-03-16T04:35:25.470Z,1.09
2023-03-16T04:36:25.465Z,1.37
2023-03-16T04:37:25.519Z,1.29
2023-03-16T04:38:25.551Z,0.92
2023-03-16T04:39:25.585Z,1.27
2023-03-16T04:40:25.944Z,1.17
2023-03-16T04:41:25.640Z,1.17
2023-03-16T04:42:25.642Z,1.20
2023-03-16T04:43:25.699Z,1.24
2023-03-16T04:44:25.689Z,1.26
2023-03-16T04:45:25.747Z,1.12
2023-03-16T04:46:25.796Z,1.23
2023-03-16T04:47:25.813Z,1.20
2023-03-16T04:48:25.832Z,1.31
2023-03-16T04:49:25.876Z,1.09
2023-03-16T04:50:26.266Z,1.16
2023-03-16T04:51:25.889Z,1.33
2023-03-16T04:52:26.048Z,0.99
2023-03-16T04:53:26.013Z,1.03
2023-03-16T04:54:25.998Z,1.33
2023-03-16T04:55:26.307Z,1.34
2023-03-16T04:56:26.070Z,1.26
2023-03-16T04:57:26.112Z,1.19
2023-03-16T04:58:26.145Z,1.28
2023-03-16T04:59:26.149Z,1.36
2023-03-16T05:00:26.557Z,1.34
2023-03-16T05:01:26.258Z,0.98
2023-03-16T05:02:26.251Z,1.25
2023-03-16T05:03:26.232Z,1.29
2023-03-16T05:04:26.258Z,1.48
2023-03-16T05:05:26.363Z,1.20
2023-03-16T05:06:26.326Z,1.14
2023-03-16T05:07:26.350Z,1.17
2023-03-16T05:08:26.368Z,1.22
2023-03-16T05:09:26.434Z,1.11
2023-03-16T05:10:26.816Z,1.20
2023-03-16T05:11:26.464Z,0.98
2023-03-16T05:12:26.509Z,1.18
2023-03-16T05:13:26.531Z,1.16
2023-03-16T05:14:26.567Z,1.08
2023-03-16T05:15:26.588Z,1.48
2023-03-16T05:16:26.676Z,1.16
2023-03-16T05:17:26.678Z,1.26
2023-03-16T05:18:26.671Z,0.94
2023-03-16T05:19:26.697Z,1.22
2023-03-16T05:20:27.072Z,1.27
2023-03-16T05:21:26.753Z,1.30
2023-03-16T05:22:26.820Z,1.09
2023-03-16T05:23:26.853Z,1.32
2023-03-16T05:24:26.871Z,1.45
2023-03-16T05:25:26.888Z,1.19
2023-03-16T05:26:26.901Z,1.52
2023-03-16T05:27:26.939Z,1.37
2023-03-16T05:28:26.980Z,1.06
2023-03-16T05:29:26.997Z,1.08
2023-03-16T05:30:27.407Z,1.36
2023-03-16T05:31:27.084Z,1.13
2023-03-16T05:32:27.098Z,1.02
2023-03-16T05:33:27.119Z,1.42
2023-03-16T05:34:27.171Z,1.12
2023-03-16T05:35:27.371Z,1.09
2023-03-16T05:36:27.213Z,1.11
2023-03-16T05:37:27.244Z,1.27
2023-03-16T05:38:27.293Z,1.01
2023-03-16T05:39:27.328Z,1.36
2023-03-16T05:40:27.548Z,1.36
2023-03-16T05:41:27.361Z,1.45
2023-03-16T05:42:27.415Z,1.42
2023-03-16T05:43:27.460Z,1.39
2023-03-16T05:44:27.462Z,1.36
2023-03-16T05:45:27.565Z,1.47
2023-03-16T05:46:27.581Z,1.36
2023-03-16T05:47:27.607Z,1.39
2023-03-16T05:48:27.635Z,1.21
2023-03-16T05:49:27.671Z,1.31
2023-03-16T05:50:27.943Z,1.01
2023-03-16T05:51:27.705Z,1.14
2023-03-16T05:52:27.731Z,1.45
2023-03-16T05:53:27.748Z,1.01
2023-03-16T05:54:27.787Z,1.15
2023-03-16T05:55:27.824Z,1.21
2023-03-16T05:56:27.868Z,1.41
2023-03-16T05:57:27.876Z,1.13
2023-03-16T05:58:27.902Z,1.37
2023-03-16T05:59:27.903Z,1.21
2023-03-16T06:00:28.188Z,1.49
2023-03-16T06:01:34.977Z,1.09
2023-03-16T06:02:27.947Z,1.50
2023-03-16T06:03:27.920Z,1.34
2023-03-16T06:04:27.923Z,1.25
2023-03-16T06:05:27.901Z,1.13
2023-03-16T06:06:27.878Z,1.34
2023-03-16T06:07:29.211Z,1.27
2023-03-16T06:08:27.910Z,1.28
2023-03-16T06:09:27.829Z,1.41
2023-03-16T06:10:28.080Z,1.18
2023-03-16T06:11:27.819Z,1.16
2023-03-16T06:12:27.792Z,1.07
2023-03-16T06:13:27.785Z,1.27
2023-03-16T06:14:27.754Z,1.32
2023-03-16T06:15:27.706Z,1.30
2023-03-16T06:16:27.723Z,1.37
2023-03-16T06:17:27.676Z,1.04
2023-03-16T06:18:27.680Z,1.38
2023-03-16T06:19:27.617Z,1.09
2023-03-16T06:20:27.826Z,1.19
2023-03-16T06:21:27.610Z,1.48
2023-03-16T06:22:27.569Z,1.08
2023-03-16T06:23:27.578Z,1.41
2023-03-16T06:24:27.516Z,1.18
2023-03-16T06:25:27.511Z,1.26
2023-03-16T06:26:27.514Z,1.62
2023-03-16T06:27:27.461Z,1.49
2023-03-16T06:28:27.441Z,1.23
2023-03-16T06:29:27.483Z,1.32
2023-03-16T06:30:27.740Z,1.24
2023-03-16T06:31:27.599Z,1.40
2023-03-16T06:32:27.630Z,1.26
2023-03-16T06:44:28.150Z,2.21
2023-03-16T06:45:27.970Z,2.26
2023-03-16T06:46:35.520Z,2.69
2023-03-16T06:47:27.979Z,2.14
2023-03-16T06:48:27.988Z,2.26
2023-03-16T06:49:27.984Z,2.20
2023-03-16T06:50:28.198Z,2.06
2023-03-16T06:51:27.973Z,2.18
2023-03-16T06:52:27.964Z,2.37
2023-03-16T06:53:28.000Z,2.42
2023-03-16T06:54:27.927Z,2.07
2023-03-16T06:55:27.962Z,1.89
2023-03-16T06:56:27.981Z,2.17
2023-03-16T06:57:27.895Z,2.33
2023-03-16T06:58:27.917Z,2.19
2023-03-16T06:59:27.910Z,1.84
2023-03-16T07:00:28.043Z,2.15
2023-03-16T07:01:27.889Z,2.01
2023-03-16T07:02:27.836Z,2.11
2023-03-16T07:03:27.896Z,2.18
2023-03-16T07:04:27.936Z,3.10
2023-03-16T07:05:27.795Z,2.26
2023-03-16T07:06:27.739Z,1.96
2023-03-16T07:07:27.713Z,2.04
2023-03-16T07:08:27.759Z,2.01
2023-03-16T07:09:27.783Z,1.99
2023-03-16T07:10:28.006Z,2.07
2023-03-16T07:11:27.915Z,1.99
2023-03-16T07:12:27.843Z,1.93
2023-03-16T07:13:27.984Z,1.79
2023-03-16T07:14:27.914Z,1.88
2023-03-16T07:15:29.307Z,1.42
2023-03-16T07:16:28.049Z,1.68
2023-03-16T07:17:27.962Z,1.79
2023-03-16T07:18:28.099Z,2.03
2023-03-16T07:19:28.017Z,1.84
2023-03-16T07:20:28.327Z,1.90
2023-03-16T07:21:28.104Z,1.74
2023-03-16T07:22:28.100Z,1.87
2023-03-16T07:23:28.122Z,1.76
2023-03-16T07:24:28.120Z,1.88
2023-03-16T07:25:28.147Z,1.84
2023-03-16T07:26:28.123Z,2.20
2023-03-16T07:27:28.170Z,1.88
2023-03-16T07:28:28.208Z,2.38
2023-03-16T07:29:28.270Z,1.96
2023-03-16T07:30:28.412Z,1.86
2023-03-16T07:31:28.274Z,1.91
2023-03-16T07:32:28.321Z,2.26
2023-03-16T07:33:29.432Z,2.14
2023-03-16T07:34:28.271Z,2.03
2023-03-16T07:35:28.230Z,1.60
2023-03-16T07:36:28.174Z,2.03
2023-03-16T07:37:28.183Z,2.43
2023-03-16T07:38:28.079Z,1.87
2023-03-16T07:39:28.076Z,2.94
2023-03-16T07:40:28.452Z,3.24
2023-03-16T07:41:28.053Z,1.89
2023-03-16T07:42:28.041Z,2.71
2023-03-16T07:43:27.955Z,2.81
2023-03-16T07:44:27.960Z,2.44
2023-03-16T07:45:28.434Z,2.39
2023-03-16T07:46:28.020Z,2.20
2023-03-16T07:47:27.965Z,2.58
2023-03-16T07:48:27.914Z,2.17
2023-03-16T07:49:27.973Z,2.32
2023-03-16T07:50:28.093Z,2.22
2023-03-16T07:51:27.857Z,1.99
2023-03-16T07:52:27.866Z,2.47
2023-03-16T07:53:27.866Z,2.03
2023-03-16T07:54:27.861Z,2.17
2023-03-16T07:55:28.232Z,2.45
2023-03-16T07:56:33.646Z,2.26
2023-03-16T07:57:28.767Z,2.22
2023-03-16T07:58:27.747Z,2.39
2023-03-16T07:59:28.740Z,2.33
2023-03-16T08:00:27.933Z,2.36
2023-03-16T08:01:27.669Z,2.64
2023-03-16T08:02:27.704Z,2.78
2023-03-16T08:03:27.641Z,2.37
2023-03-16T08:04:27.593Z,2.20
2023-03-16T08:05:28.120Z,2.23
2023-03-16T08:06:27.604Z,2.79
2023-03-16T08:07:27.486Z,2.61
2023-03-16T08:08:27.496Z,2.70
2023-03-16T08:10:27.740Z,2.62
2023-03-16T08:11:27.446Z,2.31
2023-03-16T08:19:27.950Z,2.56
2023-03-16T08:20:27.969Z,2.77
2023-03-16T08:30:28.573Z,2.24
2023-03-16T08:33:27.977Z,2.92
2023-03-16T08:34:27.942Z,3.12
2023-03-16T08:35:28.030Z,2.11
2023-03-16T08:36:28.190Z,2.86
2023-03-16T08:37:28.135Z,3.02
2023-03-16T08:38:28.111Z,2.95
2023-03-16T08:39:28.123Z,2.79
2023-03-16T08:40:28.536Z,2.34
2023-03-16T08:41:28.173Z,2.83
2023-03-16T08:42:28.204Z,3.01
2023-03-16T08:43:28.170Z,3.09
2023-03-16T08:44:28.246Z,2.81
2023-03-16T08:45:28.300Z,2.91
2023-03-16T08:46:28.485Z,2.43
2023-03-16T08:47:28.588Z,2.62
2023-03-16T08:48:28.324Z,2.35
2023-03-16T08:49:28.396Z,2.33
2023-03-16T08:50:28.588Z,2.17
2023-03-16T08:51:28.395Z,2.40
2023-03-16T08:52:28.450Z,2.03
2023-03-16T08:53:28.464Z,2.25
2023-03-16T08:54:28.527Z,2.49
2023-03-16T08:55:28.489Z,2.64
2023-03-16T08:58:28.546Z,2.00
2023-03-16T08:59:30.435Z,1.86
2023-03-16T09:00:28.827Z,2.01
2023-03-16T09:01:28.658Z,2.12
2023-03-16T09:02:28.652Z,1.82
2023-03-16T09:03:28.624Z,1.91
2023-03-16T09:05:28.708Z,1.55
2023-03-16T09:07:28.744Z,1.62
2023-03-16T09:08:28.785Z,2.05
2023-03-16T09:09:28.837Z,1.75
2023-03-16T09:10:29.154Z,1.72
2023-03-16T09:12:28.883Z,1.65
2023-03-16T09:13:28.961Z,1.57
2023-03-16T09:14:28.968Z,1.71
2023-03-16T09:15:28.978Z,1.28
2023-03-16T09:16:28.991Z,1.65
2023-03-16T09:17:29.048Z,0.99
2023-03-16T09:18:29.029Z,1.65
2023-03-16T09:19:34.857Z,1.59
2023-03-16T09:20:30.342Z,1.64
2023-03-16T09:21:29.010Z,1.40
2023-03-16T09:22:29.015Z,1.45
2023-03-16T09:23:28.962Z,1.14
2023-03-16T09:24:28.978Z,1.24
2023-03-16T09:26:28.996Z,1.42
2023-03-16T09:27:28.953Z,1.39
2023-03-16T09:28:28.890Z,1.40
2023-03-16T09:29:28.878Z,1.78
2023-03-16T09:30:29.163Z,1.16
2023-03-16T09:32:28.825Z,1.41
2023-03-16T09:33:28.856Z,1.40
2023-03-16T09:34:29.457Z,1.33
2023-03-16T09:35:29.057Z,1.47
2023-03-16T09:37:35.335Z,1.43
2023-03-16T09:38:29.757Z,1.35
2023-03-16T09:39:28.733Z,1.62
2023-03-16T09:40:28.664Z,1.70
2023-03-16T09:43:28.686Z,1.56
2023-03-16T09:44:28.666Z,1.64
2023-03-16T10:57:32.343Z,1.38
2023-03-16T11:07:31.770Z,1.41
2023-03-16T11:22:32.753Z,1.46
2023-03-16T11:25:31.684Z,1.39
2023-03-16T11:27:31.809Z,1.39
2023-03-16T11:29:31.707Z,0.98
2023-03-16T11:30:31.721Z,1.27
2023-03-16T11:31:31.765Z,2.41
2023-03-16T11:32:31.862Z,1.42
2023-03-16T11:33:31.734Z,1.50
2023-03-16T11:34:31.779Z,1.55
2023-03-16T11:35:32.041Z,1.56
2023-03-16T11:36:31.827Z,2.07
2023-03-16T11:37:31.810Z,3.44
2023-03-16T11:38:32.301Z,1.98
2023-03-16T11:39:31.825Z,2.09
2023-03-16T11:40:31.869Z,2.06
2023-03-16T11:41:31.824Z,2.47
2023-03-16T11:42:32.871Z,2.43
2023-03-16T11:43:31.861Z,2.14
2023-03-16T11:44:31.915Z,1.68
2023-03-16T11:45:31.938Z,1.63
2023-03-16T11:46:32.079Z,1.86
2023-03-16T11:47:31.999Z,1.46
2023-03-16T11:48:32.051Z,1.72
2023-03-16T11:49:31.979Z,1.34
2023-03-16T11:50:32.059Z,1.45
2023-03-16T11:51:32.067Z,1.41
2023-03-16T11:52:32.085Z,1.38
2023-03-16T11:53:32.316Z,1.49
2023-03-16T11:54:32.099Z,1.49
2023-03-16T11:55:32.188Z,1.27
2023-03-16T11:56:32.136Z,1.22
2023-03-16T11:57:32.179Z,1.17
2023-03-16T11:58:32.203Z,1.88
2023-03-16T11:59:32.287Z,1.44
2023-03-16T12:00:32.249Z,2.42
2023-03-16T12:01:32.272Z,1.99
2023-03-16T12:02:32.347Z,1.94
2023-03-16T12:03:32.895Z,1.47
2023-03-16T12:04:32.373Z,1.63
2023-03-16T12:05:32.381Z,1.76
2023-03-16T12:06:32.403Z,1.59
2023-03-16T12:07:32.397Z,2.06
2023-03-16T12:08:32.409Z,1.51
2023-03-16T12:09:32.436Z,2.41
2023-03-16T12:10:32.440Z,1.61
2023-03-16T12:11:32.449Z,2.29
2023-03-16T12:12:32.501Z,1.62
2023-03-16T12:13:32.814Z,1.61
2023-03-16T12:14:32.512Z,1.85
2023-03-16T12:15:32.580Z,1.23
2023-03-16T12:16:46.344Z,1.53
2023-03-16T12:17:33.559Z,1.25
2023-03-16T12:18:32.609Z,1.55
2023-03-16T12:19:32.602Z,1.40
2023-03-16T12:20:32.586Z,1.11
2023-03-16T12:21:32.578Z,1.46
2023-03-16T12:22:32.512Z,1.37
2023-03-16T12:23:32.821Z,1.19
2023-03-16T12:24:32.473Z,1.42
2023-03-16T12:25:32.532Z,1.51
2023-03-16T12:26:32.506Z,1.31
2023-03-16T12:27:32.500Z,1.64
2023-03-16T12:28:32.806Z,1.45
2023-03-16T12:29:32.902Z,1.48
2023-03-16T12:30:33.242Z,0.94
2023-03-16T12:31:32.679Z,1.11
2023-03-16T12:32:32.479Z,1.17
2023-03-16T12:33:32.433Z,1.47
2023-03-16T12:34:32.794Z,1.17
2023-03-16T12:35:32.822Z,1.04
2023-03-16T12:36:32.447Z,1.46
2023-03-16T12:37:32.472Z,1.48
2023-03-16T12:38:32.470Z,1.28
2023-03-16T12:39:32.523Z,1.32
2023-03-16T12:40:32.516Z,1.19
2023-03-16T12:41:32.539Z,1.25
2023-03-16T12:42:32.563Z,1.45
2023-03-16T12:43:32.601Z,1.19
2023-03-16T12:44:32.620Z,1.07
2023-03-16T12:45:32.742Z,1.41
2023-03-16T12:46:32.636Z,1.60
2023-03-16T12:47:32.680Z,1.23
2023-03-16T12:48:32.643Z,1.06
2023-03-16T12:49:32.635Z,1.60
2023-03-16T12:50:32.726Z,1.26
2023-03-16T12:51:32.676Z,1.43
2023-03-16T12:52:32.778Z,1.46
2023-03-16T12:53:32.750Z,1.41
2023-03-16T12:54:32.782Z,1.21
2023-03-16T12:55:32.757Z,1.55
2023-03-16T12:56:32.797Z,1.29
2023-03-16T12:57:32.809Z,0.97
2023-03-16T12:58:32.814Z,1.32
2023-03-16T12:59:32.823Z,0.91
2023-03-16T13:00:32.869Z,1.09
2023-03-16T13:01:32.922Z,1.17
2023-03-16T13:02:32.914Z,1.17
2023-03-16T13:03:32.880Z,1.10
2023-03-16T13:04:32.958Z,1.13
2023-03-16T13:05:32.900Z,1.12
2023-03-16T13:06:35.151Z,1.26
2023-03-16T13:07:32.900Z,1.51
2023-03-16T13:08:32.898Z,0.92
2023-03-16T13:09:32.877Z,1.15
2023-03-16T13:10:32.824Z,1.13
2023-03-16T13:11:32.842Z,1.18
2023-03-16T13:12:32.954Z,1.19
2023-03-16T13:13:32.859Z,1.18
2023-03-16T13:14:32.822Z,0.97
2023-03-16T13:15:32.812Z,1.02
2023-03-16T13:16:32.841Z,1.01
2023-03-16T13:17:32.874Z,1.33
2023-03-16T13:18:32.794Z,1.16
2023-03-16T13:19:32.785Z,1.36
2023-03-16T13:20:32.883Z,1.20
2023-03-16T13:21:32.733Z,1.14
2023-03-16T13:22:32.722Z,1.22
2023-03-16T13:23:32.695Z,1.58
2023-03-16T13:24:32.679Z,1.02
2023-03-16T13:25:32.673Z,1.48
2023-03-16T13:26:32.701Z,1.22
2023-03-16T13:27:32.663Z,1.22
2023-03-16T13:28:32.667Z,1.37
2023-03-16T13:29:32.627Z,1.39
2023-03-16T13:30:32.867Z,0.99
2023-03-16T13:31:32.689Z,1.32
2023-03-16T13:32:32.604Z,1.32
2023-03-16T13:33:32.547Z,1.37
2023-03-16T13:34:32.550Z,1.06
2023-03-16T13:35:32.538Z,1.28
2023-03-16T13:36:32.535Z,1.59
2023-03-16T13:37:32.504Z,1.19
2023-03-16T13:38:32.496Z,1.03
2023-03-16T13:39:32.454Z,1.13
2023-03-16T13:40:32.428Z,1.13
2023-03-16T13:41:32.427Z,0.98
2023-03-16T13:42:32.411Z,1.11
2023-03-16T13:43:32.384Z,1.00
2023-03-16T13:44:32.406Z,0.89
2023-03-16T13:45:32.474Z,1.51
2023-03-16T13:46:32.323Z,1.43
2023-03-16T13:47:32.337Z,1.26
2023-03-16T13:48:32.280Z,1.04
2023-03-16T13:49:32.258Z,1.43
2023-03-16T13:50:32.269Z,1.31
2023-03-16T13:51:32.233Z,1.18
2023-03-16T13:52:32.238Z,1.72
2023-03-16T13:53:32.243Z,1.66
2023-03-16T13:54:32.185Z,1.87
2023-03-16T13:55:32.216Z,2.16
2023-03-16T13:56:32.158Z,1.87
2023-03-16T13:57:32.131Z,1.88
2023-03-16T13:58:34.252Z,2.19
2023-03-16T13:59:32.148Z,1.54
2023-03-16T14:00:32.102Z,1.76
2023-03-16T14:01:32.173Z,1.73
2023-03-16T14:02:32.498Z,1.92
2023-03-16T14:03:32.064Z,2.03
2023-03-16T14:04:32.054Z,1.93
2023-03-16T14:05:32.013Z,1.77
2023-03-16T14:06:31.983Z,1.97
2023-03-16T14:07:31.973Z,1.91
2023-03-16T14:08:31.934Z,2.18
2023-03-16T14:09:31.910Z,1.84
2023-03-16T14:10:31.905Z,1.48
2023-03-16T14:11:31.923Z,1.79
2023-03-16T14:12:31.900Z,2.26
2023-03-16T14:13:31.871Z,1.61
2023-03-16T14:14:32.094Z,2.00
2023-03-16T14:15:32.001Z,1.66
2023-03-16T14:16:32.120Z,1.94
2023-03-16T14:17:31.793Z,1.76
2023-03-16T14:18:31.775Z,1.92
2023-03-16T14:19:31.820Z,1.55
2023-03-16T14:20:34.981Z,1.62
2023-03-16T14:21:32.771Z,1.66
2023-03-16T14:22:31.782Z,1.70
2023-03-16T14:23:31.734Z,1.76
2023-03-16T14:24:31.739Z,1.66
2023-03-16T14:25:32.067Z,1.85
2023-03-16T14:26:31.698Z,1.79
2023-03-16T14:27:31.701Z,2.17
2023-03-16T14:28:32.394Z,2.20
2023-03-16T14:29:31.666Z,2.00
2023-03-16T14:30:31.691Z,1.58
2023-03-16T14:31:31.771Z,1.58
2023-03-16T14:32:31.773Z,1.50
2023-03-16T14:33:31.730Z,1.91
2023-03-16T14:34:31.762Z,1.49
2023-03-16T14:35:32.155Z,1.99
2023-03-16T14:36:31.777Z,1.99
2023-03-16T14:37:31.782Z,1.29
2023-03-16T14:38:31.833Z,1.57
2023-03-16T14:39:31.790Z,1.49
2023-03-16T14:40:31.796Z,3.03
2023-03-16T14:41:31.859Z,1.67
2023-03-16T14:42:31.864Z,1.62
2023-03-16T14:43:31.871Z,1.26
2023-03-16T14:44:31.891Z,1.80
2023-03-16T14:45:31.954Z,1.90
2023-03-16T14:46:32.012Z,2.20
2023-03-16T14:47:32.060Z,1.49
2023-03-16T14:48:32.005Z,2.05
2023-03-16T14:49:32.062Z,1.79
2023-03-16T14:50:32.079Z,2.00
2023-03-16T14:51:32.109Z,1.62
2023-03-16T14:52:32.136Z,1.48
2023-03-16T14:53:32.196Z,2.25
2023-03-16T14:54:32.208Z,1.60
2023-03-16T14:55:32.355Z,1.68
2023-03-16T14:56:32.278Z,1.79
2023-03-16T14:57:32.344Z,1.61
2023-03-16T14:58:32.346Z,1.27
2023-03-16T14:59:32.350Z,1.62
2023-03-16T15:00:37.142Z,1.88
2023-03-16T15:01:33.376Z,1.41
2023-03-16T15:02:32.520Z,1.66
2023-03-16T15:03:32.329Z,1.45
2023-03-16T15:04:32.336Z,1.47
2023-03-16T15:05:33.582Z,1.70
2023-03-16T15:06:32.230Z,1.79
2023-03-16T15:07:32.238Z,1.70
2023-03-16T15:08:32.284Z,1.80
2023-03-16T15:09:32.174Z,1.82
2023-03-16T15:10:32.150Z,1.66
2023-03-16T15:11:32.267Z,1.42
2023-03-16T15:12:32.273Z,1.95
2023-03-16T15:13:32.288Z,2.26
2023-03-16T15:14:32.283Z,1.70
2023-03-16T15:15:32.288Z,1.86
2023-03-16T15:16:32.396Z,1.59
2023-03-16T15:17:32.335Z,2.12
2023-03-16T15:18:32.369Z,1.68
2023-03-16T15:19:32.388Z,1.98
2023-03-16T15:20:32.420Z,2.09
2023-03-16T15:21:32.429Z,2.04
2023-03-16T15:22:32.481Z,2.36
2023-03-16T15:23:32.488Z,1.89
2023-03-16T15:24:32.547Z,2.83
2023-03-16T15:25:32.529Z,1.89
2023-03-16T15:26:32.569Z,2.02
2023-03-16T15:27:32.582Z,1.86
2023-03-16T15:28:32.578Z,1.77
2023-03-16T15:29:32.644Z,2.52
2023-03-16T15:30:32.658Z,1.91
2023-03-16T15:31:32.776Z,2.21
2023-03-16T15:32:32.730Z,2.39
2023-03-16T15:33:32.715Z,2.88
2023-03-16T15:34:32.760Z,2.24
2023-03-16T15:35:32.788Z,2.25
2023-03-16T15:36:32.836Z,2.66
2023-03-16T15:37:32.855Z,3.15